createdAt,value
2018-02-07T00:00:08.401Z,26.30
2018-02-07T00:02:35.980Z,32.25
2018-02-07T00:05:03.510Z,28.98
2018-02-07T00:07:31.081Z,27.33
2018-02-07T00:09:58.680Z,29.00
2018-02-07T00:12:26.370Z,28.42
2018-02-07T00:14:54.716Z,29.48
2018-02-07T00:17:22.285Z,28.25
2018-02-07T00:19:49.853Z,26.90
2018-02-07T00:22:17.416Z,27.35
2018-02-07T00:24:45.762Z,27.05
2018-02-07T00:27:13.331Z,28.83
2018-02-07T00:29:40.898Z,29.55
2018-02-07T00:32:08.448Z,27.42
2018-02-07T00:34:36.003Z,25.70
2018-02-07T00:37:03.597Z,27.90
2018-02-07T00:39:31.161Z,29.12
2018-02-07T00:41:58.905Z,29.52
2018-02-07T00:44:26.472Z,26.52
2018-02-07T00:46:54.122Z,29.73
2018-02-07T00:49:21.677Z,29.45
2018-02-07T00:51:49.268Z,28.65
2018-02-07T00:54:16.818Z,29.70
2018-02-07T00:56:44.392Z,30.27
2018-02-07T00:59:11.946Z,28.15
2018-02-07T01:01:39.496Z,27.20
2018-02-07T01:04:07.086Z,30.48
2018-02-07T01:06:34.721Z,27.23
2018-02-07T01:09:02.429Z,26.58
2018-02-07T01:11:29.973Z,29.48
2018-02-07T01:13:58.330Z,26.73
2018-02-07T01:16:25.928Z,28.05
2018-02-07T01:18:54.254Z,26.77
2018-02-07T01:21:21.839Z,28.40
2018-02-07T01:23:49.557Z,28.25
2018-02-07T01:26:17.109Z,29.77
2018-02-07T01:28:44.797Z,29.33
2018-02-07T01:31:12.369Z,33.55
2018-02-07T01:33:39.921Z,29.30
2018-02-07T01:36:07.612Z,28.08
2018-02-07T01:38:35.176Z,26.70
2018-02-07T01:41:03.609Z,24.63
2018-02-07T01:43:31.155Z,26.27
2018-02-07T01:45:58.717Z,25.73
2018-02-07T01:48:26.278Z,26.27
2018-02-07T01:50:53.837Z,29.45
2018-02-07T01:53:21.813Z,27.42
2018-02-07T01:55:49.364Z,26.23
2018-02-07T01:58:16.918Z,25.35
2018-02-07T02:00:45.707Z,25.55
2018-02-07T02:03:14.021Z,26.25
2018-02-07T02:05:42.598Z,28.20
2018-02-07T02:08:10.152Z,28.10
2018-02-07T02:10:37.709Z,26.52
2018-02-07T02:13:05.268Z,26.73
2018-02-07T02:15:32.881Z,27.62
2018-02-07T02:18:00.438Z,26.08
2018-02-07T02:20:27.999Z,26.37
2018-02-07T02:22:55.599Z,26.62
2018-02-07T02:25:23.962Z,27.92
2018-02-07T02:27:51.514Z,25.80
2018-02-07T02:30:19.066Z,27.60
2018-02-07T02:32:46.685Z,27.15
2018-02-07T02:35:14.230Z,26.15
2018-02-07T02:37:42.551Z,26.75
2018-02-07T02:40:10.106Z,27.30
2018-02-07T02:42:37.885Z,26.92
2018-02-07T02:45:05.437Z,27.45
2018-02-07T02:47:33.005Z,26.12
2018-02-07T02:50:00.559Z,25.15
2018-02-07T02:52:28.261Z,28.40
2018-02-07T02:54:56.592Z,26.67
2018-02-07T02:57:24.161Z,25.95
2018-02-07T02:59:51.754Z,24.83
2018-02-07T03:02:19.410Z,25.90
2018-02-07T03:04:46.962Z,25.62
2018-02-07T03:07:14.509Z,26.73
2018-02-07T03:09:42.105Z,24.50
2018-02-07T03:12:10.437Z,25.65
2018-02-07T03:14:38.236Z,26.12
2018-02-07T03:17:05.790Z,23.92
2018-02-07T03:19:33.515Z,25.35
2018-02-07T03:22:01.075Z,25.15
2018-02-07T03:24:28.626Z,25.73
2018-02-07T03:26:56.186Z,25.80
2018-02-07T03:29:23.762Z,25.60
2018-02-07T03:31:51.321Z,25.95
2018-02-07T03:34:18.881Z,27.85
2018-02-07T03:36:46.424Z,28.08
2018-02-07T03:39:13.978Z,24.80
2018-02-07T03:41:42.309Z,26.27
2018-02-07T03:44:09.878Z,28.05
2018-02-07T03:46:37.501Z,24.92
2018-02-07T03:49:05.070Z,27.33
2018-02-07T03:51:32.637Z,27.62
2018-02-07T03:54:00.209Z,26.40
2018-02-07T03:56:27.862Z,28.12
2018-02-07T03:58:55.420Z,25.40
2018-02-07T04:01:23.132Z,25.50
2018-02-07T04:03:50.736Z,26.77
2018-02-07T04:06:18.329Z,27.23
2018-02-07T04:08:45.937Z,27.95
2018-02-07T04:11:14.259Z,26.37
2018-02-07T04:13:41.848Z,29.48
2018-02-07T04:16:09.564Z,25.73
2018-02-07T04:18:37.185Z,27.98
2018-02-07T04:21:04.757Z,28.92
2018-02-07T04:23:33.109Z,27.85
2018-02-07T04:26:00.661Z,27.60
2018-02-07T04:28:28.225Z,28.77
2018-02-07T04:30:55.795Z,25.98
2018-02-07T04:33:23.412Z,27.67
2018-02-07T04:35:50.984Z,28.98
2018-02-07T04:38:18.554Z,26.15
2018-02-07T04:40:46.126Z,27.95
2018-02-07T04:43:13.709Z,27.52
2018-02-07T04:45:41.300Z,28.75
2018-02-07T04:48:09.623Z,27.08
2018-02-07T04:50:37.174Z,29.67
2018-02-07T04:53:04.754Z,28.20
2018-02-07T04:55:32.305Z,29.05
2018-02-07T04:57:59.945Z,29.27
2018-02-07T05:00:27.545Z,29.87
2018-02-07T05:02:55.212Z,31.02
2018-02-07T05:05:22.778Z,28.77
2018-02-07T05:07:50.358Z,31.35
2018-02-07T05:10:18.701Z,29.58
2018-02-07T05:12:46.276Z,29.80
2018-02-07T05:15:13.820Z,30.58
2018-02-07T05:17:41.384Z,29.70
2018-02-07T05:20:09.789Z,29.65
2018-02-07T05:22:38.111Z,31.55
2018-02-07T05:25:05.669Z,28.00
2018-02-07T05:27:33.242Z,30.98
2018-02-07T05:30:00.824Z,30.92
2018-02-07T05:32:28.393Z,31.33
2018-02-07T05:34:55.952Z,31.58
2018-02-07T05:37:23.513Z,32.17
2018-02-07T05:39:51.066Z,30.98
2018-02-07T05:42:18.754Z,30.52
2018-02-07T05:44:46.337Z,31.17
2018-02-07T05:47:13.922Z,30.45
2018-02-07T05:49:41.494Z,29.23
2018-02-07T05:52:09.068Z,30.33
2018-02-07T05:54:36.638Z,30.30
2018-02-07T05:57:04.237Z,30.45
2018-02-07T05:59:32.717Z,31.17
2018-02-07T06:02:01.037Z,31.20
2018-02-07T06:04:28.807Z,27.77
2018-02-07T06:06:56.361Z,34.38
2018-02-07T06:09:23.924Z,33.38
2018-02-07T06:11:51.486Z,33.53
2018-02-07T06:14:19.178Z,36.25
2018-02-07T06:16:46.777Z,33.75
2018-02-07T06:19:14.308Z,34.97
2018-02-07T06:21:42.356Z,33.72
2018-02-07T06:24:10.192Z,31.62
2018-02-07T06:26:37.772Z,31.85
2018-02-07T06:29:05.332Z,34.58
2018-02-07T06:31:32.893Z,34.22
2018-02-07T06:34:00.453Z,32.05
2018-02-07T06:36:28.216Z,32.45
2018-02-07T06:38:55.779Z,34.72
2018-02-07T06:41:23.322Z,33.58
2018-02-07T06:43:50.879Z,35.40
2018-02-07T06:46:18.457Z,33.88
2018-02-07T06:48:46.038Z,34.22
2018-02-07T06:51:13.596Z,34.70
2018-02-07T06:53:41.161Z,35.58
2018-02-07T06:56:08.728Z,38.22
2018-02-07T06:58:36.317Z,37.88
2018-02-07T07:01:04.658Z,38.20
2018-02-07T07:03:32.252Z,38.92
2018-02-07T07:06:00.605Z,40.12
2018-02-07T07:08:28.182Z,39.35
2018-02-07T07:10:55.739Z,38.95
2018-02-07T07:13:23.285Z,39.28
2018-02-07T07:15:51.651Z,36.83
2018-02-07T07:18:19.221Z,33.95
2018-02-07T07:20:46.807Z,38.38
2018-02-07T07:23:14.370Z,37.40
2018-02-07T07:25:42.728Z,36.47
2018-02-07T07:28:10.300Z,34.75
2018-02-07T07:30:38.186Z,35.78
2018-02-07T07:33:07.345Z,36.25
2018-02-07T07:35:34.900Z,38.38
2018-02-07T07:38:02.543Z,34.25
2018-02-07T07:40:30.112Z,35.53
2018-02-07T07:42:57.686Z,34.58
2018-02-07T07:45:25.247Z,34.00
2018-02-07T07:47:52.830Z,36.13
2018-02-07T07:50:20.401Z,36.90
2018-02-07T07:52:47.973Z,35.55
2018-02-07T07:55:16.383Z,39.33
2018-02-07T07:57:43.945Z,36.20
2018-02-07T08:00:11.508Z,35.90
2018-02-07T08:02:39.097Z,38.05
2018-02-07T08:05:06.674Z,37.95
2018-02-07T08:07:34.229Z,39.28
2018-02-07T08:10:01.866Z,41.35
2018-02-07T08:12:29.429Z,37.50
2018-02-07T08:14:57.105Z,37.78
2018-02-07T08:17:24.675Z,33.63
2018-02-07T08:19:52.507Z,34.65
2018-02-07T08:22:20.048Z,30.77
2018-02-07T08:24:47.633Z,32.65
2018-02-07T08:27:15.196Z,34.90
2018-02-07T08:29:42.741Z,31.92
2018-02-07T08:32:10.302Z,35.33
2018-02-07T08:34:37.925Z,34.80
2018-02-07T08:37:06.242Z,33.28
2018-02-07T08:39:33.810Z,32.35
2018-02-07T08:42:01.425Z,33.40
2018-02-07T08:44:29.782Z,31.37
2018-02-07T08:46:57.387Z,33.38
2018-02-07T08:49:25.706Z,34.72
2018-02-07T08:51:53.303Z,33.15
2018-02-07T08:54:20.881Z,32.75
2018-02-07T08:56:49.216Z,31.77
2018-02-07T08:59:17.585Z,41.53
2018-02-07T09:01:45.274Z,35.90
2018-02-07T09:04:12.881Z,37.38
2018-02-07T09:06:41.484Z,34.03
2018-02-07T09:09:09.065Z,33.72
2018-02-07T09:11:36.645Z,30.52
2018-02-07T09:14:04.198Z,33.22
2018-02-07T09:16:31.785Z,33.10
2018-02-07T09:18:59.297Z,32.28
2018-02-07T09:21:26.882Z,33.20
2018-02-07T09:23:54.445Z,33.30
2018-02-07T09:26:22.005Z,34.35
2018-02-07T09:28:49.593Z,33.10
2018-02-07T09:31:17.910Z,34.17
2018-02-07T09:33:45.478Z,35.42
2018-02-07T09:36:13.083Z,34.15
2018-02-07T09:38:40.649Z,34.42
2018-02-07T09:41:09.013Z,34.13
2018-02-07T09:43:37.374Z,31.17
2018-02-07T09:46:04.954Z,33.67
2018-02-07T09:48:32.549Z,35.17
2018-02-07T09:51:00.887Z,34.80
2018-02-07T09:53:29.738Z,34.38
2018-02-07T09:55:57.359Z,33.10
2018-02-07T09:58:24.978Z,33.80
2018-02-07T10:00:52.585Z,33.42
2018-02-07T10:03:20.312Z,33.22
2018-02-07T10:05:48.030Z,33.15
2018-02-07T10:08:16.362Z,33.15
2018-02-07T10:10:43.980Z,35.35
2018-02-07T10:13:12.321Z,35.08
2018-02-07T10:15:39.873Z,32.45
2018-02-07T10:18:07.454Z,38.30
2018-02-07T10:20:35.012Z,32.72
2018-02-07T10:23:02.581Z,32.92
2018-02-07T10:25:30.141Z,29.90
2018-02-07T10:27:58.474Z,29.00
2018-02-07T10:30:26.018Z,28.85
2018-02-07T10:32:53.594Z,30.05
2018-02-07T10:35:21.181Z,29.23
2018-02-07T10:37:48.785Z,29.70
2018-02-07T10:40:17.419Z,29.20
2018-02-07T10:42:44.977Z,32.05
2018-02-07T10:45:12.558Z,32.42
2018-02-07T10:47:40.134Z,33.17
2018-02-07T10:50:07.705Z,31.10
2018-02-07T10:52:36.152Z,31.48
2018-02-07T10:55:03.740Z,33.15
2018-02-07T10:57:32.063Z,30.80
2018-02-07T10:59:59.686Z,32.58
2018-02-07T11:02:28.153Z,33.72
2018-02-07T11:04:55.720Z,35.10
2018-02-07T11:07:24.059Z,32.90
2018-02-07T11:09:51.659Z,36.35
2018-02-07T11:12:19.771Z,32.40
2018-02-07T11:14:47.464Z,30.67
2018-02-07T11:17:15.032Z,33.78
2018-02-07T11:19:42.600Z,33.92
2018-02-07T11:22:10.185Z,34.28
2018-02-07T11:24:37.783Z,35.10
2018-02-07T11:27:05.500Z,31.90
2018-02-07T11:29:34.054Z,35.15
2018-02-07T11:32:04.453Z,35.42
2018-02-07T11:34:32.205Z,37.97
2018-02-07T11:37:00.530Z,37.45
2018-02-07T11:39:28.150Z,36.35
2018-02-07T11:41:56.477Z,34.78
2018-02-07T11:44:24.172Z,36.83
2018-02-07T11:46:51.745Z,35.25
2018-02-07T11:49:20.159Z,33.70
2018-02-07T11:51:47.826Z,35.25
2018-02-07T11:54:15.422Z,37.35
2018-02-07T11:56:42.975Z,38.58
2018-02-07T11:59:10.560Z,39.50
2018-02-07T12:01:38.185Z,38.53
2018-02-07T12:04:05.761Z,40.47
2018-02-07T12:06:33.306Z,42.05
2018-02-07T12:09:00.880Z,42.80
2018-02-07T12:11:28.441Z,43.60
2018-02-07T12:13:56.611Z,42.08
2018-02-07T12:16:25.341Z,42.58
2018-02-07T12:18:52.929Z,39.50
2018-02-07T12:21:21.017Z,43.75
2018-02-07T12:23:48.612Z,39.55
2018-02-07T12:26:16.174Z,39.42
2018-02-07T12:28:43.816Z,44.15
2018-02-07T12:31:11.414Z,38.78
2018-02-07T12:33:38.981Z,37.85
2018-02-07T12:36:06.725Z,39.38
2018-02-07T12:38:34.305Z,37.47
2018-02-07T12:41:01.881Z,41.75
2018-02-07T12:43:30.205Z,37.88
2018-02-07T12:45:57.802Z,42.67
2018-02-07T12:48:25.377Z,39.45
2018-02-07T12:50:53.705Z,39.60
2018-02-07T12:53:21.377Z,40.15
2018-02-07T12:55:48.920Z,38.70
2018-02-07T12:58:16.581Z,35.30
2018-02-07T13:00:44.145Z,38.58
2018-02-07T13:03:11.748Z,41.22
2018-02-07T13:05:39.349Z,42.95
2018-02-07T13:08:06.938Z,39.25
2018-02-07T13:10:34.575Z,39.45
2018-02-07T13:13:02.149Z,41.45
2018-02-07T13:15:29.762Z,39.15
2018-02-07T13:17:57.414Z,38.10
2018-02-07T13:20:25.016Z,40.38
2018-02-07T13:22:53.382Z,40.67
2018-02-07T13:25:20.953Z,38.13
2018-02-07T13:27:49.293Z,38.83
2018-02-07T13:30:21.532Z,41.25
2018-02-07T13:32:49.945Z,41.40
2018-02-07T13:35:17.606Z,40.08
2018-02-07T13:37:45.196Z,40.97
2018-02-07T13:40:12.765Z,38.63
2018-02-07T13:42:41.143Z,39.42
2018-02-07T13:45:08.706Z,39.00
2018-02-07T13:47:37.033Z,39.80
2018-02-07T13:50:04.635Z,37.65
2018-02-07T13:52:32.305Z,39.90
2018-02-07T13:55:00.732Z,40.67
2018-02-07T13:57:29.164Z,41.03
2018-02-07T13:59:57.809Z,40.70
2018-02-07T14:02:25.359Z,40.65
2018-02-07T14:04:52.917Z,44.42
2018-02-07T14:07:20.481Z,45.85
2018-02-07T14:09:48.063Z,39.33
2018-02-07T14:12:15.636Z,41.72
2018-02-07T14:14:43.379Z,40.45
2018-02-07T14:17:10.970Z,41.03
2018-02-07T14:19:38.541Z,39.08
2018-02-07T14:22:06.095Z,43.87
2018-02-07T14:24:34.524Z,42.00
2018-02-07T14:27:02.097Z,44.75
2018-02-07T14:29:29.694Z,40.58
2018-02-07T14:31:57.261Z,37.72
2018-02-07T14:34:24.937Z,41.17
2018-02-07T14:36:52.619Z,40.28
2018-02-07T14:39:21.093Z,39.38
2018-02-07T14:41:50.535Z,39.38
2018-02-07T14:44:18.289Z,40.03
2018-02-07T14:46:45.861Z,41.17
2018-02-07T14:49:14.537Z,39.88
2018-02-07T14:51:42.691Z,41.37
2018-02-07T14:54:11.019Z,39.30
2018-02-07T14:56:38.565Z,43.92
2018-02-07T14:59:06.126Z,42.95
2018-02-07T15:01:33.684Z,40.95
2018-02-07T15:04:01.229Z,40.12
2018-02-07T15:06:28.823Z,39.38
2018-02-07T15:08:56.578Z,40.30
2018-02-07T15:11:24.189Z,41.63
2018-02-07T15:13:51.734Z,39.90
2018-02-07T15:16:19.278Z,41.53
2018-02-07T15:18:46.862Z,41.25
2018-02-07T15:21:14.410Z,38.60
2018-02-07T15:23:41.997Z,36.38
2018-02-07T15:26:09.582Z,35.22
2018-02-07T15:28:37.147Z,30.95
2018-02-07T15:31:05.497Z,31.00
2018-02-07T15:33:33.082Z,34.78
2018-02-07T15:36:01.429Z,31.92
2018-02-07T15:38:29.011Z,34.20
2018-02-07T15:40:57.341Z,30.80
2018-02-07T15:43:24.900Z,31.87
2018-02-07T15:45:52.479Z,32.85
2018-02-07T15:48:20.078Z,31.35
2018-02-07T15:50:48.550Z,30.37
2018-02-07T15:53:16.107Z,30.70
2018-02-07T15:55:44.439Z,28.55
2018-02-07T15:58:12.860Z,27.65
2018-02-07T16:00:41.112Z,31.87
2018-02-07T16:03:08.696Z,32.58
2018-02-07T16:05:36.266Z,29.83
2018-02-07T16:08:04.738Z,31.10
2018-02-07T16:10:32.317Z,29.98
2018-02-07T16:13:00.706Z,30.05
2018-02-07T16:15:28.269Z,27.37
2018-02-07T16:17:56.793Z,25.77
2018-02-07T16:20:24.377Z,28.60
2018-02-07T16:22:51.955Z,25.88
2018-02-07T16:25:19.510Z,27.05
2018-02-07T16:27:47.142Z,26.55
2018-02-07T16:30:14.699Z,27.55
2018-02-07T16:32:42.281Z,26.90
2018-02-07T16:35:09.894Z,26.25
2018-02-07T16:37:38.217Z,27.48
2018-02-07T16:40:05.789Z,26.83
2018-02-07T16:42:33.368Z,24.23
2018-02-07T16:45:00.937Z,25.60
2018-02-07T16:47:28.541Z,25.60
2018-02-07T16:49:56.116Z,25.05
2018-02-07T16:52:23.740Z,25.80
2018-02-07T16:54:52.052Z,25.45
2018-02-07T16:57:19.611Z,24.45
2018-02-07T16:59:47.317Z,28.12
2018-02-07T17:02:14.905Z,27.02
2018-02-07T17:04:43.246Z,22.60
2018-02-07T17:07:10.833Z,25.73
2018-02-07T17:09:38.466Z,26.48
2018-02-07T17:12:06.127Z,23.50
2018-02-07T17:14:36.195Z,24.80
2018-02-07T17:17:06.125Z,25.35
2018-02-07T17:19:33.967Z,26.42
2018-02-07T17:22:02.929Z,28.17
2018-02-07T17:24:31.688Z,29.25
2018-02-07T17:27:10.543Z,29.85
2018-02-07T17:29:39.845Z,30.17
2018-02-07T17:32:07.436Z,30.27
2018-02-07T17:34:35.126Z,29.75
2018-02-07T17:37:02.714Z,27.17
2018-02-07T17:39:30.309Z,26.58
2018-02-07T17:41:58.005Z,26.90
2018-02-07T17:44:25.710Z,25.40
2018-02-07T17:46:53.258Z,27.65
2018-02-07T17:49:22.143Z,29.17
2018-02-07T17:51:50.477Z,28.48
2018-02-07T17:54:18.055Z,28.65
2018-02-07T17:56:45.712Z,29.08
2018-02-07T17:59:13.319Z,31.55
2018-02-07T18:01:41.667Z,33.00
2018-02-07T18:04:09.227Z,32.28
2018-02-07T18:06:36.784Z,32.33
2018-02-07T18:09:04.341Z,34.63
2018-02-07T18:11:32.062Z,35.38
2018-02-07T18:13:59.668Z,33.70
2018-02-07T18:16:27.234Z,31.37
2018-02-07T18:18:55.581Z,31.27
2018-02-07T18:21:23.154Z,32.15
2018-02-07T18:23:50.766Z,32.13
2018-02-07T18:26:19.118Z,33.35
2018-02-07T18:28:46.697Z,32.72
2018-02-07T18:31:15.040Z,33.08
2018-02-07T18:33:42.657Z,34.38
2018-02-07T18:36:10.243Z,35.13
2018-02-07T18:38:37.802Z,47.90
2018-02-07T18:41:05.378Z,45.17
2018-02-07T18:43:32.984Z,34.75
2018-02-07T18:46:00.664Z,35.72
2018-02-07T18:48:28.418Z,30.73
2018-02-07T18:50:55.994Z,30.00
2018-02-07T18:53:23.577Z,32.65
2018-02-07T18:55:51.176Z,39.00
2018-02-07T18:58:19.512Z,35.92
2018-02-07T19:00:47.101Z,34.25
2018-02-07T19:03:15.435Z,31.65
2018-02-07T19:05:43.021Z,37.35
2018-02-07T19:08:10.609Z,31.77
2018-02-07T19:10:38.186Z,36.55
2018-02-07T19:13:06.564Z,36.58
2018-02-07T19:15:45.454Z,36.50
2018-02-07T19:18:13.045Z,41.80
2018-02-07T19:20:41.633Z,44.00
2018-02-07T19:23:09.980Z,38.90
2018-02-07T19:25:37.653Z,34.90
2018-02-07T19:28:05.218Z,35.78
2018-02-07T19:30:32.782Z,39.30
2018-02-07T19:33:00.353Z,34.60
2018-02-07T19:35:28.702Z,47.67
2018-02-07T19:37:56.339Z,47.28
2018-02-07T19:40:24.057Z,48.15
2018-02-07T19:42:51.738Z,51.50
2018-02-07T19:45:19.357Z,56.40
2018-02-07T19:47:46.957Z,57.20
2018-02-07T19:50:15.297Z,54.08
2018-02-07T19:52:43.042Z,48.00
2018-02-07T19:55:10.673Z,47.33
2018-02-07T19:57:38.271Z,47.40
2018-02-07T20:00:06.954Z,43.22
2018-02-07T20:02:34.551Z,49.65
2018-02-07T20:05:02.160Z,47.85
2018-02-07T20:07:29.785Z,44.20
2018-02-07T20:09:59.320Z,40.28
2018-02-07T20:12:28.053Z,37.55
2018-02-07T20:15:00.969Z,38.17
2018-02-07T20:17:29.454Z,35.30
2018-02-07T20:19:58.037Z,38.38
2018-02-07T20:22:26.670Z,38.17
2018-02-07T20:24:54.312Z,42.13
2018-02-07T20:27:22.401Z,48.85
2018-02-07T20:29:50.055Z,48.00
2018-02-07T20:32:17.796Z,46.28
2018-02-07T20:34:45.536Z,46.33
2018-02-07T20:37:13.203Z,34.80
2018-02-07T20:39:40.882Z,37.75
2018-02-07T20:42:08.663Z,32.42
2018-02-07T20:44:36.263Z,34.05
2018-02-07T20:47:03.995Z,34.72
2018-02-07T20:49:31.790Z,35.47
2018-02-07T20:51:59.371Z,36.85
2018-02-07T20:54:26.937Z,36.13
2018-02-07T20:56:54.568Z,35.80
2018-02-07T20:59:22.178Z,37.72
2018-02-07T21:01:50.699Z,36.30
2018-02-07T21:04:19.147Z,34.70
2018-02-07T21:06:47.478Z,33.55
2018-02-07T21:09:15.057Z,34.95
2018-02-07T21:11:42.810Z,33.95
2018-02-07T21:14:11.094Z,35.17
2018-02-07T21:16:39.628Z,34.67
2018-02-07T21:19:07.311Z,35.75
2018-02-07T21:21:34.897Z,34.58
2018-02-07T21:24:02.491Z,36.45
2018-02-07T21:26:30.843Z,33.38
2018-02-07T21:28:58.701Z,35.65
2018-02-07T21:31:26.443Z,33.05
2018-02-07T21:33:54.166Z,34.20
2018-02-07T21:36:22.509Z,33.92
2018-02-07T21:38:50.277Z,34.65
2018-02-07T21:41:17.984Z,36.95
2018-02-07T21:43:46.639Z,35.28
2018-02-07T21:46:14.419Z,32.45
2018-02-07T21:48:42.863Z,36.85
2018-02-07T21:51:10.538Z,35.10
2018-02-07T21:53:39.037Z,35.13
2018-02-07T21:56:07.424Z,30.20
2018-02-07T21:58:35.123Z,32.42
2018-02-07T22:01:02.779Z,32.63
2018-02-07T22:03:31.235Z,33.70
2018-02-07T22:05:59.587Z,32.08
2018-02-07T22:08:27.150Z,31.98
2018-02-07T22:10:54.748Z,32.35
2018-02-07T22:13:23.153Z,30.45
2018-02-07T22:15:51.634Z,31.92
2018-02-07T22:18:19.432Z,35.20
2018-02-07T22:20:47.008Z,30.37
2018-02-07T22:23:14.767Z,32.30
2018-02-07T22:25:42.917Z,34.50
2018-02-07T22:28:10.529Z,31.42
2018-02-07T22:30:39.090Z,31.10
2018-02-07T22:33:06.689Z,29.80
2018-02-07T22:35:34.245Z,30.52
2018-02-07T22:38:01.978Z,31.10
2018-02-07T22:40:29.553Z,31.12
2018-02-07T22:42:58.068Z,31.73
2018-02-07T22:45:25.628Z,32.25
2018-02-07T22:47:53.280Z,32.17
2018-02-07T22:50:20.919Z,33.35
2018-02-07T22:52:48.595Z,33.10
2018-02-07T22:55:17.062Z,33.28
2018-02-07T22:57:45.454Z,32.50
2018-02-07T23:00:14.797Z,32.38
2018-02-07T23:02:42.501Z,31.65
2018-02-07T23:05:10.272Z,31.52
2018-02-07T23:07:38.650Z,30.70
2018-02-07T23:10:06.341Z,31.02
2018-02-07T23:12:33.920Z,30.42
2018-02-07T23:15:01.550Z,30.95
2018-02-07T23:17:29.907Z,31.17
2018-02-07T23:19:57.483Z,31.45
2018-02-07T23:22:25.809Z,30.62
2018-02-07T23:24:53.565Z,28.00
2018-02-07T23:27:21.221Z,29.87
2018-02-07T23:29:48.803Z,28.45
2018-02-07T23:32:16.449Z,28.23
2018-02-07T23:34:44.526Z,29.60
2018-02-07T23:37:12.134Z,30.02
2018-02-07T23:39:39.944Z,29.58
2018-02-07T23:42:07.517Z,28.12
2018-02-07T23:44:35.066Z,29.95
2018-02-07T23:47:02.626Z,27.23
2018-02-07T23:49:30.205Z,27.77
2018-02-07T23:51:57.788Z,27.30
2018-02-07T23:54:25.455Z,26.60
2018-02-07T23:56:53.905Z,28.95
2018-02-07T23:59:21.491Z,29.65
